Time;durP1;ratioP1;P1;durP2;ratioP2;P2;SDS_P1;SDS_P2;PMS_P1;PMS_P2;Temp;Humidity;BMP_temperature;BMP_pressure;BME280_temperature;BME280_humidity;BME280_pressure;Samples;Min_cycle;Max_cycle;Signal;HPM_P1;HPM_P2
2022/01/22 00:03:47;;;;;;;;;;;;;;;-1.12;98.98;96823.25;10454064;28;1947;-70
2022/01/22 00:08:51;;;;;;;;;;;;;;;-1.13;98.52;96821.59;10448871;28;2335;-70
2022/01/22 00:19:13;;;;;;;;;;;;;;;-1.03;97.31;96813.44;10433028;28;2453;-69
2022/01/22 00:24:17;;;;;;;;;;;;;;;-1.01;96.93;96819.38;10444609;28;1789;-69
2022/01/22 00:29:21;;;;;;;;;;;;;;;-1.03;97.20;96810.00;10447749;28;1859;-69
2022/01/22 00:34:25;;;;;;;;;;;;;;;-1.00;98.30;96809.66;10445050;28;1904;-68
2022/01/22 00:39:29;;;;;;;;;;;;;;;-1.00;97.00;96815.75;10450503;28;1877;-70
2022/01/22 00:44:33;;;;;;;;;;;;;;;-0.99;95.37;96806.00;10440059;28;1909;-69
2022/01/22 00:49:37;;;;;;;;;;;;;;;-0.99;95.02;96800.72;10445945;28;1907;-71
2022/01/22 00:54:40;;;;;;;;;;;;;;;-0.95;93.62;96791.47;10441420;28;1971;-70
2022/01/22 00:59:44;;;;;;;;;;;;;;;-0.92;94.40;96785.84;10447964;28;1889;-70
2022/01/22 01:04:47;;;;;;;;;;;;;;;-0.91;94.39;96785.66;10445006;28;1927;-68
2022/01/22 01:09:51;;;;;;;;;;;;;;;-0.96;92.59;96779.25;10483652;28;1908;-71
2022/01/22 01:15:09;;;;;;;;;;;;;;;-1.01;92.15;96786.91;10475668;28;1911;-70
2022/01/22 01:36:24;;;;;;;;;;;;;;;-0.77;91.48;96759.47;10295349;28;2067;-71
2022/01/22 01:41:34;;;;;;;;;;;;;;;-0.84;89.90;96762.00;10310586;28;1776;-70
2022/01/22 01:46:38;;;;;;;;;;;;;;;-0.80;89.62;96768.56;10314754;28;2343;-71
2022/01/22 01:51:41;;;;;;;;;;;;;;;-0.80;88.57;96762.47;10312422;28;1879;-70
2022/01/22 02:02:06;;;;;;;;;;;;;;;-0.85;89.91;96760.38;10317028;28;1867;-71
2022/01/22 02:07:09;;;;;;;;;;;;;;;-0.75;90.06;96739.81;10317809;28;1864;-71
2022/01/22 02:12:18;;;;;;;;;;;;;;;-0.71;91.14;96717.31;10321361;28;1848;-70
2022/01/22 02:28:06;;;;;;;;;;;;;;;-0.78;94.61;96705.03;10320899;28;1852;-71
2022/01/22 02:33:22;;;;;;;;;;;;;;;-0.80;94.23;96699.94;10335962;28;2016;-70
2022/01/22 02:38:33;;;;;;;;;;;;;;;-0.75;93.56;96721.34;10322323;28;1789;-69
2022/01/22 02:43:37;;;;;;;;;;;;;;;-0.66;95.43;96717.63;10322171;28;1780;-69
2022/01/22 02:48:40;;;;;;;;;;;;;;;-0.64;92.89;96720.06;10321250;28;1886;-70
2022/01/22 02:53:44;;;;;;;;;;;;;;;-0.57;93.36;96724.47;10315588;28;1969;-70
2022/01/22 02:58:47;;;;;;;;;;;;;;;-0.61;93.28;96720.53;10324517;28;2080;-69
2022/01/22 03:03:51;;;;;;;;;;;;;;;-0.60;94.30;96714.25;10329563;28;2016;-71
2022/01/22 03:08:54;;;;;;;;;;;;;;;-0.54;94.46;96718.00;10319664;28;1961;-70
2022/01/22 03:19:56;;;;;;;;;;;;;;;-0.58;94.72;96725.44;10318931;28;1960;-71
2022/01/22 03:30:18;;;;;;;;;;;;;;;-0.52;96.16;96712.53;10320183;28;1849;-69
2022/01/22 03:35:27;;;;;;;;;;;0.40;99.90;;;-0.47;98.00;96715.44;10313673;28;1971;-70
2022/01/22 03:40:30;;;;;;;;;;;0.50;99.90;;;-0.52;99.36;96718.63;10322701;28;1985;-71
2022/01/22 03:45:34;;;;;;;;;;;0.50;99.90;;;-0.51;99.60;96711.53;10320077;28;1993;-70
2022/01/22 03:50:37;;;;;;;;;;;0.50;99.90;;;-0.52;98.80;96723.09;10308869;28;2042;-69
2022/01/22 03:55:49;;;;;;;;;;;0.50;99.90;;;-0.50;100.00;96703.44;10313784;28;1979;-69
2022/01/22 04:01:09;;;;;;;;;;;0.40;99.90;;;-0.58;100.00;96717.53;10314824;28;2031;-71
2022/01/22 04:06:39;;;;;;;;;;;0.40;99.90;;;-0.72;100.00;96720.97;10316380;28;1948;-70
2022/01/22 04:11:44;;;;;;;;;;;0.30;99.90;;;-0.85;100.00;96724.22;10316875;28;2348;-70
2022/01/22 04:16:59;;;;;;;;;;;0.20;99.90;;;-0.91;100.00;96708.28;10315018;28;1987;-69
2022/01/22 04:27:26;;;;;;;;;;;0.10;99.90;;;-0.87;100.00;96709.59;10314981;28;2003;-69
2022/01/22 04:32:30;;;;;;;;;;;0.10;99.90;;;-0.94;100.00;96708.66;10317851;28;1897;-70
2022/01/22 04:37:33;;;;;;;;;;;0.10;99.90;;;-0.88;100.00;96719.31;10322418;28;1972;-70
2022/01/22 04:42:38;;;;;;;;;;;0.10;99.90;;;-0.88;100.00;96723.78;10318231;28;2005;-69
2022/01/22 04:47:50;;;;;;;;;;;0.10;99.90;;;-0.82;100.00;96728.34;10318457;28;1942;-70
2022/01/22 04:58:15;;;;;;;;;;;;;;;-0.74;100.00;96720.34;10317987;28;2060;-70
2022/01/22 05:03:18;;;;;;;;;;;0.10;99.90;;;-0.73;100.00;96716.69;10312391;28;1979;-70
2022/01/22 05:08:21;;;;;;;;;;;0.20;99.90;;;-0.75;100.00;96712.63;10314558;28;1992;-71
2022/01/22 05:13:24;;;;;;;;;;;0.20;99.90;;;-0.71;100.00;96708.59;10314623;28;1977;-70
2022/01/22 05:18:27;;;;;;;;;;;0.20;99.90;;;-0.70;100.00;96708.44;10316997;28;1980;-70
2022/01/22 05:23:31;;;;;;;;;;;0.30;99.90;;;-0.77;100.00;96696.94;10314504;28;1936;-69
2022/01/22 05:29:03;;;;;;;;;;;0.30;99.90;;;-0.80;100.00;96686.75;10316418;28;1976;-70
2022/01/22 05:39:28;;;;;;;;;;;0.20;99.90;;;-0.77;100.00;96696.09;10313335;28;2019;-70
2022/01/22 05:44:32;;;;;;;;;;;0.20;99.90;;;-0.77;100.00;96704.03;10311741;28;1932;-71
2022/01/22 05:49:38;;;;;;;;;;;0.20;99.90;;;-0.82;100.00;96713.31;10315103;28;2007;-72
2022/01/22 05:54:56;;;;;;;;;;;0.30;99.90;;;-0.80;100.00;96707.03;10312736;28;2199;-70
2022/01/22 05:59:59;;;;;;;;;;;0.10;99.90;;;-0.88;100.00;96719.31;10318638;28;2055;-70
2022/01/22 06:05:02;;;;;;;;;;;0.10;99.90;;;-0.87;100.00;96702.47;10322743;28;2031;-72
2022/01/22 06:10:16;;;;;;;;;;;0.20;99.90;;;-0.85;100.00;96723.41;10320264;28;2038;-70
2022/01/22 06:15:19;;;;;;;;;;;0.10;99.90;;;-0.76;100.00;96722.34;10322738;28;1922;-71
2022/01/22 06:20:22;;;;;;;;;;;0.10;99.90;;;-0.74;100.00;96720.34;10322693;28;2123;-70
2022/01/22 06:25:26;;;;;;;;;;;0.20;99.90;;;-0.80;100.00;96726.34;10320897;28;2035;-72
2022/01/22 06:30:28;;;;;;;;;;;0.20;99.90;;;-0.75;100.00;96737.19;10322464;28;2102;-70
2022/01/22 06:35:31;;;;;;;;;;;0.20;99.90;;;-0.68;100.00;96732.00;10338005;28;2047;-70
2022/01/22 06:45:55;;;;;;;;;;;0.30;99.90;;;-0.66;100.00;96769.59;10319039;28;2031;-69
2022/01/22 06:50:59;;;;;;;;;;;0.20;99.90;;;-0.62;100.00;96761.16;10321013;28;2127;-70
2022/01/22 06:56:03;;;;;;;;;;;0.30;99.90;;;-0.61;100.00;96765.44;10323279;28;1939;-71
2022/01/22 07:01:06;;;;;;;;;;;0.40;99.90;;;-0.56;100.00;96765.72;10335734;28;1926;-70
2022/01/22 07:06:09;;;;;;;;;;;0.40;99.90;;;-0.54;100.00;96762.91;10337511;28;1882;-70
2022/01/22 07:11:12;;;;;;;;;;;0.40;99.90;;;-0.62;100.00;96776.19;10332233;28;1999;-70
2022/01/22 07:16:15;;;;;;;;;;;0.40;99.90;;;-0.52;100.00;96781.19;10333196;28;1973;-71
2022/01/22 07:21:20;;;;;;;;;;;0.40;99.90;;;-0.53;100.00;96787.47;10323490;28;1932;-71
2022/01/22 07:26:23;;;;;;;;;;;0.40;99.90;;;-0.50;100.00;96780.03;10320597;28;2030;-70
2022/01/22 07:31:27;;;;;;;;;;;0.50;99.90;;;-0.57;100.00;96789.69;10321168;28;1965;-70
2022/01/22 07:36:30;;;;;;;;;;;0.40;99.90;;;-0.57;100.00;96794.97;10446009;22;1923;-68
2022/01/22 07:41:33;;;;;;;;;;;0.40;99.90;;;-0.62;100.00;96806.06;10500253;28;2032;-69
2022/01/22 07:46:36;;;;;;;;;;;0.40;99.90;;;-0.55;100.00;96808.81;10468098;28;1979;-68
2022/01/22 07:51:39;;;;;;;;;;;0.40;99.90;;;-0.62;100.00;96824.53;10452552;28;1951;-68
2022/01/22 07:56:42;;;;;;;;;;;0.30;99.90;;;-0.60;100.00;96827.81;10450621;28;1977;-70
2022/01/22 08:01:45;;;;;;;;;;;0.40;99.90;;;-0.51;100.00;96822.44;10459458;28;1999;-68
2022/01/22 08:06:48;;;;;;;;;;;0.40;99.90;;;-0.57;100.00;96808.97;10444176;28;1884;-70
2022/01/22 08:11:51;;;;;;;;;;;0.40;99.90;;;-0.47;100.00;96810.53;10457985;28;1990;-68
2022/01/22 08:16:54;;;;;;;;;;;0.50;99.90;;;-0.43;100.00;96822.41;10451617;28;1920;-67
2022/01/22 08:21:57;;;;;;;;;;;0.50;99.90;;;-0.44;100.00;96815.47;10453250;28;1981;-68
2022/01/22 08:27:18;;;;;;;;;;;0.50;99.90;;;-0.39;100.00;96823.66;10446693;28;1899;-68
2022/01/22 08:32:35;;;;;;;;;;;0.60;99.90;;;-0.39;100.00;96827.13;10443571;28;1701;-68
2022/01/22 08:37:39;;;;;;;;;;;0.50;99.90;;;-0.39;100.00;96831.59;10450149;28;2013;-68
2022/01/22 08:42:44;;;;;;;;;;;0.50;99.90;;;-0.37;100.00;96841.00;10454467;28;2000;-67
2022/01/22 08:47:47;;;;;;;;;;;0.50;99.90;;;-0.35;100.00;96840.81;10454638;28;2031;-67
2022/01/22 08:52:50;;;;;;;;;;;0.50;99.90;;;-0.33;100.00;96849.38;10449362;28;1968;-67
2022/01/22 08:57:53;;;;;;;;;;;0.60;99.90;;;-0.27;100.00;96849.47;10457303;28;1972;-67
2022/01/22 09:02:56;;;;;;;;;;;0.70;99.90;;;-0.28;100.00;96861.06;10457127;28;2060;-69
2022/01/22 09:08:00;;;;;;;;;;;0.70;99.90;;;-0.31;100.00;96860.59;10464734;28;1920;-68
2022/01/22 09:13:03;;;;;;;;;;;0.60;99.90;;;-0.30;100.00;96868.34;10460465;28;1937;-68
2022/01/22 09:18:05;;;;;;;;;;;0.60;99.90;;;-0.20;100.00;96873.38;10446237;28;1965;-68
2022/01/22 09:23:09;;;;;;;;;;;0.60;99.90;;;-0.18;100.00;96881.94;10449478;28;1904;-68
2022/01/22 09:28:13;;;;;;;;;;;0.70;99.90;;;-0.22;100.00;96883.31;10446507;28;2016;-68
2022/01/22 09:33:16;;;;;;;;;;;0.60;99.90;;;-0.08;100.00;96895.72;10448332;28;2027;-68
2022/01/22 09:38:20;;;;;;;;;;;0.80;99.90;;;-0.08;100.00;96895.72;10449094;28;1985;-68
2022/01/22 09:43:23;;;;;;;;;;;0.80;99.90;;;-0.05;100.00;96894.56;10450859;28;1897;-67
2022/01/22 09:48:26;;;;;;;;;;;0.80;99.90;;;-0.03;100.00;96909.22;10447960;28;1838;-68
2022/01/22 09:53:29;;;;;;;;;;;0.90;99.90;;;0.04;100.00;96911.16;10444416;28;1980;-67
2022/01/22 09:58:32;;;;;;;;;;;1.00;99.90;;;0.02;100.00;96921.09;10452319;28;2076;-69
2022/01/22 10:03:35;;;;;;;;;;;0.90;99.90;;;0.14;100.00;96924.94;10442507;28;2087;-67
2022/01/22 10:08:39;;;;;;;;;;;1.00;99.90;;;0.21;100.00;96933.81;10447321;28;2526;-70
2022/01/22 10:13:42;;;;;;;;;;;1.00;99.90;;;0.13;100.00;96923.31;10449950;28;1988;-70
2022/01/22 10:18:45;;;;;;;;;;;1.10;99.90;;;0.15;100.00;96926.59;10441283;28;1931;-69
2022/01/22 10:23:49;;;;;;;;;;;1.10;99.90;;;0.27;100.00;96917.22;10445936;28;1936;-69
2022/01/22 10:29:00;;;;;;;;;;;1.10;99.90;;;0.26;100.00;96928.78;10449514;28;1939;-70
2022/01/22 10:34:03;;;;;;;;;;;1.20;99.90;;;0.26;100.00;96929.63;10444059;28;1571;-69
2022/01/22 10:39:06;;;;;;;;;;;1.10;99.90;;;0.19;100.00;96927.84;10447255;28;2111;-70
2022/01/22 10:44:09;;;;;;;;;;;1.10;99.90;;;0.23;100.00;96914.09;10464395;28;1893;-69
2022/01/22 10:49:13;;;;;;;;;;;1.00;99.90;;;0.10;100.00;96921.00;10472383;28;2030;-70
2022/01/22 10:54:15;;;;;;;;;;;1.00;99.90;;;0.17;100.00;96914.00;10470664;28;1958;-70
2022/01/22 10:59:18;;;;;;;;;;;1.00;99.90;;;0.27;100.00;96930.44;10475626;28;1942;-70
2022/01/22 11:04:22;;;;;;;;;;;1.10;99.90;;;0.25;100.00;96917.41;10466458;28;1975;-70
2022/01/22 11:09:26;;;;;;;;;;;1.10;99.90;;;0.41;100.00;96916.41;10451805;28;1941;-70
2022/01/22 11:14:29;;;;;;;;;;;1.20;99.90;;;0.30;100.00;96929.25;10476718;28;1983;-70
2022/01/22 11:19:32;;;;;;;;;;;1.20;99.90;;;0.41;100.00;96919.03;10481922;28;1972;-69
2022/01/22 11:24:36;;;;;;;;;;;1.20;99.90;;;0.31;100.00;96936.97;10463241;28;2080;-69
2022/01/22 11:29:39;;;;;;;;;;;1.30;99.90;;;0.35;100.00;96930.34;10454694;28;1906;-68
2022/01/22 11:34:41;;;;;;;;;;;1.20;99.90;;;0.20;100.00;96940.91;10450486;28;1999;-67
2022/01/22 11:39:44;;;;;;;;;;;1.20;99.90;;;0.22;100.00;96938.09;10435860;28;1935;-71
2022/01/22 11:44:50;;;;;;;;;;;1.10;99.90;;;0.14;100.00;96938.16;10443106;28;1937;-70
2022/01/22 11:49:57;;;;;;;;;;;1.10;99.90;;;0.44;100.00;96937.19;10447296;28;2110;-71
2022/01/22 11:55:00;;;;;;;;;;;1.20;99.90;;;0.48;100.00;96922.59;10447453;28;1997;-69
2022/01/22 12:00:04;;;;;;;;;;;1.30;99.90;;;0.54;100.00;96926.34;10455600;28;1984;-71
2022/01/22 12:05:07;;;;;;;;;;;1.30;99.90;;;0.44;100.00;96936.34;10449369;28;1968;-71
2022/01/22 12:15:39;;;;;;;;;;;1.20;99.90;;;0.45;100.00;96928.28;10405305;28;2368;-71
2022/01/22 12:21:30;;;;;;;;;;;1.30;99.90;;;0.53;100.00;96924.72;10458974;28;1932;-71
2022/01/22 12:26:07;;;;;;;;;;;1.30;99.90;;;0.49;100.00;96924.22;10460811;28;1999;-70
2022/01/22 12:31:10;;;;;;;;;;;1.40;99.90;;;0.63;100.00;96924.41;10447305;28;2013;-70
2022/01/22 12:36:22;;;;;;;;;;;1.40;99.90;;;0.70;100.00;96925.31;10452665;28;1914;-71
2022/01/22 12:41:31;;;;;;;;;;;1.50;99.90;;;0.60;100.00;96922.97;10449224;28;2025;-70
2022/01/22 12:46:34;;;;;;;;;;;1.50;99.90;;;0.71;100.00;96927.81;10456628;28;1896;-69
2022/01/22 12:51:37;;;;;;;;;;;1.50;99.90;;;0.66;100.00;96913.47;10443950;28;2006;-71
2022/01/22 12:56:51;;;;;;;;;;;1.50;99.90;;;0.61;100.00;96924.59;10450597;28;2015;-70
2022/01/22 13:01:54;;;;;;;;;;;1.50;99.90;;;0.53;100.00;96912.28;10448548;28;2031;-70
2022/01/22 13:06:57;;;;;;;;;;;1.50;99.90;;;0.42;100.00;96925.97;10468534;28;2108;-69
2022/01/22 13:12:00;;;;;;;;;;;1.50;99.90;;;0.61;100.00;96903.44;10453937;28;1909;-70
2022/01/22 13:17:03;;;;;;;;;;;1.40;99.90;;;0.55;100.00;96920.03;10448280;28;1956;-71
2022/01/22 13:22:06;;;;;;;;;;;1.50;99.90;;;0.41;100.00;96921.69;10451366;28;1920;-70
2022/01/22 13:27:12;;;;;;;;;;;1.40;99.90;;;0.33;100.00;96927.06;10441688;28;2072;-69
2022/01/22 13:32:19;;;;;;;;;;;1.30;99.90;;;0.47;100.00;96939.47;10444017;28;1909;-70
2022/01/22 13:48:08;;;;;;;;;;;1.30;99.90;;;0.42;100.00;96933.91;10486272;28;1962;-74
2022/01/22 13:53:25;;;;;;;;;;;1.30;99.90;;;0.29;100.00;96933.72;10479838;28;1996;-75
2022/01/22 13:58:28;;;;;;;;;;;1.30;99.90;;;0.28;100.00;96940.00;10483307;28;1960;-77
2022/01/22 14:03:38;;;;;;;;;;;1.20;99.90;;;0.32;100.00;96938.66;10483557;28;2128;-74
2022/01/22 14:08:41;;;;;;;;;;;1.30;99.90;;;0.25;100.00;96945.63;10471804;28;1984;-75
2022/01/22 14:13:44;;;;;;;;;;;1.20;99.90;;;0.30;100.00;96940.63;10502136;28;2080;-76
2022/01/22 14:18:48;;;;;;;;;;;1.30;99.90;;;0.31;100.00;96942.28;10501551;28;2196;-76
2022/01/22 14:23:51;;;;;;;;;;;1.20;99.90;;;0.30;100.00;96948.56;10508647;28;1880;-75
2022/01/22 14:28:55;;;;;;;;;;;1.20;99.90;;;0.54;100.00;96937.75;10510579;28;1921;-74
2022/01/22 14:33:58;;;;;;;;;;;1.40;99.90;;;0.50;100.00;96943.56;10498398;28;1966;-74
2022/01/22 14:39:01;;;;;;;;;;;1.40;99.90;;;0.53;100.00;96944.03;10508030;28;2009;-76
2022/01/22 14:49:24;;;;;;;;;;;1.30;99.90;;;0.29;100.00;96944.28;10502649;28;1994;-75
2022/01/22 14:54:27;;;;;;;;;;;1.30;99.90;;;0.38;100.00;96937.94;10479516;28;2045;-75
2022/01/22 14:59:34;;;;;;;;;;;1.30;99.90;;;0.36;100.00;96942.56;10491766;28;2272;-75
2022/01/22 15:04:37;;;;;;;;;;;1.30;99.90;;;0.35;100.00;96943.56;10491191;28;2028;-75
2022/01/22 15:09:40;;;;;;;;;;;1.30;99.90;;;0.47;100.00;96942.13;10487948;28;1960;-78
2022/01/22 15:14:43;;;;;;;;;;;1.40;99.90;;;0.48;100.00;96951.69;10491190;28;1958;-78
2022/01/22 15:19:46;;;;;;;;;;;1.40;99.90;;;0.39;100.00;96966.03;10493441;28;2069;-79
2022/01/22 15:24:49;;;;;;;;;;;1.40;99.90;;;0.36;100.00;96966.38;10490189;28;1951;-78
2022/01/22 15:29:58;;;;;;;;;;;1.40;99.90;;;0.40;100.00;96967.66;10490939;28;1954;-78
2022/01/22 15:35:02;;;;;;;;;;;1.40;99.90;;;0.38;100.00;96953.81;10490025;28;1957;-77
2022/01/22 15:40:05;;;;;;;;;;;1.30;99.90;;;0.23;100.00;96971.44;10492308;28;1932;-77
2022/01/22 15:45:08;;;;;;;;;;;1.30;99.90;;;0.27;100.00;96975.41;10499795;28;2009;-78
2022/01/22 15:50:11;;;;;;;;;;;1.20;99.90;;;0.23;100.00;96960.88;10503557;28;2019;-79
2022/01/22 15:55:35;;;;;;;;;;;1.20;99.90;;;0.20;100.00;96967.34;10506504;28;1869;-78
2022/01/22 16:00:39;;;;;;;;;;;1.10;99.90;;;0.13;100.00;96960.31;10491875;28;1899;-78
2022/01/22 16:05:44;;;;;;;;;;;1.10;99.90;;;0.16;100.00;96981.09;10496205;28;2010;-77
2022/01/22 16:10:47;;;;;;;;;;;1.00;99.90;;;0.12;100.00;96982.44;10491339;28;1881;-79
2022/01/22 16:15:50;;;;;;;;;;;1.00;99.90;;;0.17;100.00;96990.69;10494913;28;1980;-79
2022/01/22 16:20:53;;;;;;;;;;;1.10;99.90;;;0.14;100.00;96998.97;10493211;28;1867;-78
2022/01/22 16:25:56;;;;;;;;;;;1.10;99.90;;;0.18;100.00;96994.97;10488936;28;1860;-80
2022/01/22 16:30:59;;;;;;;;;;;1.10;99.90;;;0.13;100.00;96998.16;10502328;28;1678;-78
2022/01/22 16:36:02;;;;;;;;;;;1.10;99.90;;;0.22;100.00;97007.66;10496209;28;1973;-77
2022/01/22 16:41:05;;;;;;;;;;;1.10;99.90;;;0.21;100.00;97007.84;10499350;28;1713;-78
2022/01/22 16:46:23;;;;;;;;;;;1.10;99.90;;;0.10;100.00;97013.53;10502554;28;1851;-78
2022/01/22 16:51:34;;;;;;;;;;;1.10;99.90;;;0.18;100.00;97013.47;10524514;28;1791;-77
2022/01/22 16:56:41;;;;;;;;;;;1.10;99.90;;;0.17;100.00;97014.47;10507572;28;1878;-76
2022/01/22 17:01:46;;;;;;;;;;;1.10;99.90;;;0.14;100.00;97022.78;10519950;28;1690;-78
2022/01/22 17:06:49;;;;;;;;;;;1.00;99.90;;;0.06;100.00;97028.94;10521395;28;1620;-77
2022/01/22 17:17:09;;;;;;;;;;;1.00;99.90;;;0.18;100.00;97038.09;10464730;28;1918;-77
2022/01/22 17:22:12;;;;;;;;;;;1.10;99.90;;;0.15;100.00;97042.94;10491945;28;1929;-79
2022/01/22 17:27:19;;;;;;;;;;;1.10;99.90;;;0.14;100.00;97044.75;10490597;28;1852;-77
2022/01/22 17:32:22;;;;;;;;;;;1.10;99.90;;;0.22;100.00;97044.69;10487173;28;1794;-76
2022/01/22 17:37:25;;;;;;;;;;;1.10;99.90;;;0.22;100.00;97049.16;10487944;28;1981;-77
2022/01/22 17:42:31;;;;;;;;;;;1.10;99.90;;;0.23;100.00;97054.25;10488468;28;1804;-76
2022/01/22 17:47:34;;;;;;;;;;;1.10;99.90;;;0.32;100.00;97056.81;10489004;28;2014;-76
2022/01/22 17:52:37;;;;;;;;;;;1.20;99.90;;;0.34;100.00;97053.03;10492709;28;1848;-75
2022/01/22 17:57:40;;;;;;;;;;;1.20;99.90;;;0.34;100.00;97071.53;10495577;28;1914;-77
2022/01/22 18:02:43;;;;;;;;;;;1.20;99.90;;;0.31;100.00;97069.22;10496330;28;1876;-77
2022/01/22 18:07:46;;;;;;;;;;;1.20;99.90;;;0.33;100.00;97072.53;10523334;28;1891;-75
2022/01/22 18:12:49;;;;;;;;;;;1.20;99.90;;;0.30;100.00;97064.13;10496341;28;1807;-78
2022/01/22 18:17:52;;;;;;;;;;;1.30;99.90;;;0.28;100.00;97072.25;10497173;28;1967;-77
2022/01/22 18:22:55;;;;;;;;;;;1.20;99.90;;;0.28;100.00;97074.88;10495219;28;1922;-78
2022/01/22 18:27:58;;;;;;;;;;;1.20;99.90;;;0.37;100.00;97083.56;10493849;28;1837;-78
2022/01/22 18:33:01;;;;;;;;;;;1.40;99.90;;;0.28;100.00;97079.34;10494360;28;1804;-78
2022/01/22 18:38:04;;;;;;;;;;;1.20;99.90;;;0.37;100.00;97075.63;10497181;28;1913;-76
2022/01/22 18:43:07;;;;;;;;;;;1.30;99.90;;;0.31;100.00;97079.00;10495448;28;1780;-76
2022/01/22 18:48:10;;;;;;;;;;;1.30;99.90;;;0.41;100.00;97098.09;10489494;28;1593;-76
2022/01/22 18:53:13;;;;;;;;;;;1.30;99.90;;;0.34;100.00;97091.88;10489171;28;1839;-77
2022/01/22 18:58:16;;;;;;;;;;;1.30;99.90;;;0.34;100.00;97084.75;10497245;28;1953;-77
2022/01/22 19:03:19;;;;;;;;;;;1.30;99.90;;;0.42;100.00;97094.44;10493393;28;1773;-76
2022/01/22 19:08:22;;;;;;;;;;;1.40;99.90;;;0.34;100.00;97094.53;10489845;28;1831;-76
2022/01/22 19:13:25;;;;;;;;;;;1.30;99.90;;;0.42;100.00;97095.28;10479306;28;2362;-77
2022/01/22 19:18:28;;;;;;;;;;;1.40;99.90;;;0.43;100.00;97104.03;10484229;28;1968;-76
2022/01/22 19:23:43;;;;;;;;;;;1.30;99.90;;;0.44;100.00;97110.97;10490117;28;1860;-77
2022/01/22 19:28:46;;;;;;;;;;;1.40;99.90;;;0.48;100.00;97110.44;10489601;28;1808;-75
2022/01/22 19:33:49;;;;;;;;;;;1.40;99.90;;;0.52;100.00;97114.38;10499873;28;1820;-77
2022/01/22 19:38:52;;;;;;;;;;;1.40;99.90;;;0.50;100.00;97121.66;10510237;22;3769;-68
2022/01/22 19:44:01;;;;;;;;;;;1.50;99.90;;;0.60;100.00;97115.31;10491998;28;1791;-68
2022/01/22 19:49:06;;;;;;;;;;;1.50;99.90;;;0.58;100.00;97117.31;10479331;28;2002;-69
2022/01/22 19:54:10;;;;;;;;;;;1.50;99.90;;;0.58;100.00;97118.16;10482208;28;1875;-68
2022/01/22 19:59:14;;;;;;;;;;;1.50;99.90;;;0.56;100.00;97114.00;10472834;28;1910;-69
2022/01/22 20:04:18;;;;;;;;;;;1.50;99.90;;;0.56;100.00;97120.13;10478419;28;1944;-67
2022/01/22 20:09:20;;;;;;;;;;;1.50;99.90;;;0.61;100.00;97120.41;10486311;28;1808;-69
2022/01/22 20:14:24;;;;;;;;;;;1.60;99.90;;;0.63;100.00;97112.28;10485417;28;1851;-70
2022/01/22 20:19:27;;;;;;;;;;;1.60;99.90;;;0.63;100.00;97110.47;10476528;28;1975;-68
2022/01/22 20:24:50;;;;;;;;;;;1.60;99.90;;;0.67;100.00;97114.41;10492404;28;1899;-67
2022/01/22 20:29:54;;;;;;;;;;;1.60;99.90;;;0.60;100.00;97099.44;10479517;28;1845;-69
2022/01/22 20:34:57;;;;;;;;;;;1.60;99.90;;;0.60;100.00;97091.50;10523333;28;1929;-69
2022/01/22 20:40:01;;;;;;;;;;;1.60;99.90;;;0.71;100.00;97096.38;10506133;28;1963;-67
2022/01/22 20:45:11;;;;;;;;;;;1.60;99.90;;;0.60;100.00;97105.56;10508129;28;1880;-69
2022/01/22 20:50:14;;;;;;;;;;;1.60;99.90;;;0.66;100.00;97107.47;10484959;28;2031;-68
2022/01/22 20:55:17;;;;;;;;;;;1.60;99.90;;;0.65;100.00;97105.03;10486000;28;1936;-68
2022/01/22 21:00:21;;;;;;;;;;;1.60;99.90;;;0.66;100.00;97106.66;10492998;28;1887;-70
2022/01/22 21:05:24;;;;;;;;;;;1.60;99.90;;;0.71;100.00;97112.25;10501193;28;1368;-69
2022/01/22 21:10:27;;;;;;;;;;;1.60;99.90;;;0.77;100.00;97116.81;10506900;28;1718;-68
2022/01/22 21:15:31;;;;;;;;;;;1.70;99.90;;;0.73;100.00;97113.72;10513728;28;1499;-67
2022/01/22 21:20:34;;;;;;;;;;;1.70;99.90;;;0.74;100.00;97114.53;10511463;28;1899;-67
2022/01/22 21:25:39;;;;;;;;;;;1.70;99.90;;;0.74;100.00;97114.53;10505420;28;1655;-66
2022/01/22 21:30:42;;;;;;;;;;;1.70;99.90;;;0.76;100.00;97109.88;10496615;28;1974;-69
2022/01/22 21:35:46;;;;;;;;;;;1.70;99.90;;;0.73;100.00;97116.34;10484944;28;1966;-69
2022/01/22 21:40:49;;;;;;;;;;;1.60;99.90;;;0.79;100.00;97110.34;10500842;28;1918;-70
2022/01/22 21:45:52;;;;;;;;;;;1.70;99.90;;;0.71;100.00;97099.84;10496273;28;1943;-70
2022/01/22 21:50:55;;;;;;;;;;;1.70;99.90;;;0.69;100.00;97101.00;10501043;28;1964;-69
2022/01/22 21:56:00;;;;;;;;;;;1.70;99.90;;;0.68;100.00;97102.81;10490197;28;1995;-68
2022/01/22 22:01:03;;;;;;;;;;;1.60;99.90;;;0.76;100.00;97107.22;10463645;28;2435;-67
2022/01/22 22:06:07;;;;;;;;;;;1.60;99.90;;;0.78;100.00;97107.88;10474641;28;1915;-66
2022/01/22 22:11:10;;;;;;;;;;;1.70;99.90;;;0.78;100.00;97108.69;10487507;28;1989;-66
2022/01/22 22:16:15;;;;;;;;;;;1.70;99.90;;;0.82;100.00;97106.50;10466760;28;1967;-66
2022/01/22 22:21:18;;;;;;;;;;;1.70;99.90;;;0.90;100.00;97106.44;10471253;28;1939;-67
2022/01/22 22:26:21;;;;;;;;;;;1.80;99.90;;;0.81;100.00;97102.22;10467629;28;1894;-71
2022/01/22 22:31:24;;;;;;;;;;;1.70;99.90;;;0.93;100.00;97103.44;10468960;28;1984;-68
2022/01/22 22:36:27;;;;;;;;;;;1.80;99.90;;;0.77;100.00;97101.75;10480356;28;1923;-66
2022/01/22 22:41:30;;;;;;;;;;;1.80;99.90;;;0.78;100.00;97100.75;10474616;28;1971;-66
2022/01/22 22:46:33;;;;;;;;;;;1.80;99.90;;;0.82;100.00;97093.25;10484257;28;1924;-68
2022/01/22 22:51:36;;;;;;;;;;;1.70;99.90;;;0.74;100.00;97085.41;10484256;28;1931;-68
2022/01/22 22:56:39;;;;;;;;;;;1.80;99.90;;;0.83;100.00;97089.66;10484934;28;1963;-68
2022/01/22 23:01:42;;;;;;;;;;;1.80;99.90;;;0.83;100.00;97076.41;10478700;28;1976;-66
2022/01/22 23:06:45;;;;;;;;;;;1.80;99.90;;;0.88;100.00;97070.53;10474399;28;1902;-67
2022/01/22 23:11:49;;;;;;;;;;;1.80;99.90;;;0.88;100.00;97075.84;10477891;28;2105;-68
2022/01/22 23:16:59;;;;;;;;;;;1.90;99.90;;;0.87;100.00;97076.84;10469481;28;1975;-67
2022/01/22 23:22:07;;;;;;;;;;;1.80;99.90;;;0.87;100.00;97077.66;10477134;28;1992;-66
2022/01/22 23:27:11;;;;;;;;;;;1.80;99.90;;;0.80;100.00;97084.69;10472211;28;1924;-68
2022/01/22 23:32:19;;;;;;;;;;;1.80;99.90;;;0.85;100.00;97087.63;10477069;28;1950;-67
2022/01/22 23:46:12;;;;;;;;;;;1.70;99.90;;;0.85;100.00;97090.28;10479976;28;1406;-67
2022/01/22 23:59:11;;;;;;;;;;;1.80;99.90;;;0.87;100.00;97098.84;10499127;28;1988;-67
